Kirkby Stephen, United Kingdom
Current Conditions -  °F | °C
As of 12:50 PM on Friday 24 Oct 2014 (Local Time) from EGXE Reporting Station
Scattered Clouds Scattered Clouds  
Wind Chill: 59°   Ceiling: Unl
Heat Index: 59°   Visibility: 6mi
Dew Point: 45°   Wind: 8mph
Humidity: 59%   Direction: 210°SSW
Pressure: 29.83"   Gusts: NA
Location:  54.47°N, 2.35°W
Report Text: EGXE 241150Z 21007KT 9999 FEW030 SCT040 15/07 Q1010 BLU NOSIG
Loading
Personal Weather Stations






























Interactive Weather Map
Tropical Storm Tracking
New forecast layout! Learn more

10-Day Weather Forecast

Advertisements
Track Severe Weather on mobile